sensor_id;sensor_type;location;lat;lon;timestamp;P1;durP1;ratioP1;P2;durP2;ratioP2
59042;SDS011;44826;51.596;5.624;2023-05-10T00:02:09;6.47;;;4.72;;
59042;SDS011;44826;51.596;5.624;2023-05-10T00:04:34;6.65;;;4.53;;
59042;SDS011;44826;51.596;5.624;2023-05-10T00:06:59;7.18;;;4.85;;
59042;SDS011;44826;51.596;5.624;2023-05-10T00:09:25;7.00;;;4.93;;
59042;SDS011;44826;51.596;5.624;2023-05-10T00:11:50;6.93;;;4.88;;
59042;SDS011;44826;51.596;5.624;2023-05-10T00:14:15;6.53;;;4.90;;
59042;SDS011;44826;51.596;5.624;2023-05-10T00:16:41;7.45;;;5.45;;
59042;SDS011;44826;51.596;5.624;2023-05-10T00:19:06;8.02;;;5.65;;
59042;SDS011;44826;51.596;5.624;2023-05-10T00:21:31;9.73;;;5.57;;
59042;SDS011;44826;51.596;5.624;2023-05-10T00:23:58;11.63;;;6.32;;
59042;SDS011;44826;51.596;5.624;2023-05-10T00:26:23;9.75;;;6.43;;
59042;SDS011;44826;51.596;5.624;2023-05-10T00:28:49;9.88;;;6.72;;
59042;SDS011;44826;51.596;5.624;2023-05-10T00:31:14;12.60;;;7.22;;
59042;SDS011;44826;51.596;5.624;2023-05-10T00:33:39;11.13;;;7.38;;
59042;SDS011;44826;51.596;5.624;2023-05-10T00:36:05;12.38;;;7.97;;
59042;SDS011;44826;51.596;5.624;2023-05-10T00:38:32;14.20;;;8.68;;
59042;SDS011;44826;51.596;5.624;2023-05-10T00:40:58;12.65;;;8.15;;
59042;SDS011;44826;51.596;5.624;2023-05-10T00:43:23;13.57;;;8.07;;
59042;SDS011;44826;51.596;5.624;2023-05-10T00:45:48;13.93;;;9.32;;
59042;SDS011;44826;51.596;5.624;2023-05-10T00:48:14;14.82;;;9.13;;
59042;SDS011;44826;51.596;5.624;2023-05-10T00:50:39;13.73;;;9.20;;
59042;SDS011;44826;51.596;5.624;2023-05-10T00:53:05;14.52;;;9.00;;
59042;SDS011;44826;51.596;5.624;2023-05-10T00:55:31;14.30;;;9.00;;
59042;SDS011;44826;51.596;5.624;2023-05-10T00:57:56;15.90;;;9.25;;
59042;SDS011;44826;51.596;5.624;2023-05-10T01:00:21;15.10;;;9.57;;
59042;SDS011;44826;51.596;5.624;2023-05-10T01:02:47;14.73;;;9.52;;
59042;SDS011;44826;51.596;5.624;2023-05-10T01:05:12;17.02;;;10.23;;
59042;SDS011;44826;51.596;5.624;2023-05-10T01:07:38;16.48;;;10.48;;
59042;SDS011;44826;51.596;5.624;2023-05-10T01:10:05;16.05;;;10.13;;
59042;SDS011;44826;51.596;5.624;2023-05-10T01:12:31;17.27;;;10.32;;
59042;SDS011;44826;51.596;5.624;2023-05-10T01:14:59;16.77;;;10.48;;
59042;SDS011;44826;51.596;5.624;2023-05-10T01:17:25;17.17;;;10.95;;
59042;SDS011;44826;51.596;5.624;2023-05-10T01:19:51;15.80;;;10.13;;
59042;SDS011;44826;51.596;5.624;2023-05-10T01:39:09;18.02;;;11.05;;
59042;SDS011;44826;51.596;5.624;2023-05-10T01:47:35;15.30;;;9.60;;
59042;SDS011;44826;51.596;5.624;2023-05-10T01:50:06;17.35;;;10.27;;
59042;SDS011;44826;51.596;5.624;2023-05-10T01:52:43;18.70;;;11.38;;
59042;SDS011;44826;51.596;5.624;2023-05-10T01:55:13;18.98;;;11.05;;
59042;SDS011;44826;51.596;5.624;2023-05-10T01:57:42;19.73;;;11.75;;
59042;SDS011;44826;51.596;5.624;2023-05-10T02:00:09;20.70;;;12.30;;
59042;SDS011;44826;51.596;5.624;2023-05-10T02:02:39;25.17;;;13.68;;
59042;SDS011;44826;51.596;5.624;2023-05-10T02:05:07;23.58;;;13.07;;
59042;SDS011;44826;51.596;5.624;2023-05-10T02:07:34;28.40;;;14.10;;
59042;SDS011;44826;51.596;5.624;2023-05-10T02:10:01;26.48;;;14.65;;
59042;SDS011;44826;51.596;5.624;2023-05-10T02:12:29;32.05;;;15.70;;
59042;SDS011;44826;51.596;5.624;2023-05-10T02:14:59;30.67;;;16.13;;
59042;SDS011;44826;51.596;5.624;2023-05-10T02:17:27;33.28;;;17.23;;
59042;SDS011;44826;51.596;5.624;2023-05-10T02:19:53;35.38;;;18.55;;
59042;SDS011;44826;51.596;5.624;2023-05-10T02:22:21;32.78;;;17.98;;
59042;SDS011;44826;51.596;5.624;2023-05-10T02:24:47;33.50;;;17.95;;
59042;SDS011;44826;51.596;5.624;2023-05-10T02:27:13;37.85;;;19.17;;
59042;SDS011;44826;51.596;5.624;2023-05-10T02:29:40;37.28;;;19.02;;
59042;SDS011;44826;51.596;5.624;2023-05-10T02:32:06;37.78;;;19.40;;
59042;SDS011;44826;51.596;5.624;2023-05-10T02:34:34;37.75;;;19.45;;
59042;SDS011;44826;51.596;5.624;2023-05-10T02:37:01;37.75;;;19.63;;
59042;SDS011;44826;51.596;5.624;2023-05-10T02:39:28;38.10;;;19.98;;
59042;SDS011;44826;51.596;5.624;2023-05-10T02:41:56;36.83;;;19.20;;
59042;SDS011;44826;51.596;5.624;2023-05-10T02:44:22;38.38;;;20.10;;
59042;SDS011;44826;51.596;5.624;2023-05-10T02:46:48;38.72;;;20.13;;
59042;SDS011;44826;51.596;5.624;2023-05-10T02:49:14;37.38;;;19.42;;
59042;SDS011;44826;51.596;5.624;2023-05-10T02:51:45;41.45;;;20.52;;
59042;SDS011;44826;51.596;5.624;2023-05-10T02:54:18;37.92;;;19.58;;
59042;SDS011;44826;51.596;5.624;2023-05-10T02:56:50;34.67;;;19.05;;
59042;SDS011;44826;51.596;5.624;2023-05-10T02:59:18;38.08;;;20.63;;
59042;SDS011;44826;51.596;5.624;2023-05-10T03:01:44;38.65;;;21.20;;
59042;SDS011;44826;51.596;5.624;2023-05-10T03:04:09;36.97;;;21.42;;
59042;SDS011;44826;51.596;5.624;2023-05-10T03:06:34;38.05;;;21.45;;
59042;SDS011;44826;51.596;5.624;2023-05-10T03:09:00;35.80;;;20.40;;
59042;SDS011;44826;51.596;5.624;2023-05-10T03:11:39;37.38;;;20.95;;
59042;SDS011;44826;51.596;5.624;2023-05-10T03:14:25;36.47;;;20.38;;
59042;SDS011;44826;51.596;5.624;2023-05-10T03:17:11;36.28;;;19.90;;
59042;SDS011;44826;51.596;5.624;2023-05-10T03:19:54;36.22;;;20.15;;
59042;SDS011;44826;51.596;5.624;2023-05-10T03:22:23;35.97;;;19.90;;
59042;SDS011;44826;51.596;5.624;2023-05-10T03:24:52;35.28;;;21.38;;
59042;SDS011;44826;51.596;5.624;2023-05-10T03:27:20;37.67;;;21.40;;
59042;SDS011;44826;51.596;5.624;2023-05-10T03:29:47;38.75;;;21.65;;
59042;SDS011;44826;51.596;5.624;2023-05-10T03:32:13;39.22;;;21.58;;
59042;SDS011;44826;51.596;5.624;2023-05-10T03:34:42;38.60;;;22.20;;
59042;SDS011;44826;51.596;5.624;2023-05-10T03:39:35;36.92;;;21.17;;
59042;SDS011;44826;51.596;5.624;2023-05-10T03:42:01;37.67;;;20.60;;
59042;SDS011;44826;51.596;5.624;2023-05-10T03:44:26;39.90;;;22.67;;
59042;SDS011;44826;51.596;5.624;2023-05-10T03:46:51;39.75;;;22.80;;
59042;SDS011;44826;51.596;5.624;2023-05-10T03:49:17;41.45;;;23.33;;
59042;SDS011;44826;51.596;5.624;2023-05-10T03:51:42;41.30;;;23.48;;
59042;SDS011;44826;51.596;5.624;2023-05-10T03:54:07;39.17;;;22.80;;
59042;SDS011;44826;51.596;5.624;2023-05-10T03:56:33;38.97;;;22.83;;
59042;SDS011;44826;51.596;5.624;2023-05-10T03:58:58;41.45;;;23.38;;
59042;SDS011;44826;51.596;5.624;2023-05-10T04:01:23;41.15;;;23.27;;
59042;SDS011;44826;51.596;5.624;2023-05-10T04:03:48;41.97;;;24.02;;
59042;SDS011;44826;51.596;5.624;2023-05-10T04:06:14;42.33;;;23.08;;
59042;SDS011;44826;51.596;5.624;2023-05-10T04:08:39;38.78;;;23.05;;
59042;SDS011;44826;51.596;5.624;2023-05-10T04:11:08;38.80;;;22.80;;
59042;SDS011;44826;51.596;5.624;2023-05-10T04:13:34;39.58;;;22.27;;
59042;SDS011;44826;51.596;5.624;2023-05-10T04:15:59;43.42;;;23.65;;
59042;SDS011;44826;51.596;5.624;2023-05-10T04:18:25;41.85;;;23.33;;
59042;SDS011;44826;51.596;5.624;2023-05-10T04:20:50;37.78;;;22.27;;
59042;SDS011;44826;51.596;5.624;2023-05-10T04:23:15;39.78;;;21.85;;
59042;SDS011;44826;51.596;5.624;2023-05-10T04:25:41;37.85;;;22.23;;
59042;SDS011;44826;51.596;5.624;2023-05-10T04:28:07;38.60;;;23.35;;
59042;SDS011;44826;51.596;5.624;2023-05-10T04:30:32;39.45;;;22.92;;
59042;SDS011;44826;51.596;5.624;2023-05-10T04:32:57;38.85;;;22.27;;
59042;SDS011;44826;51.596;5.624;2023-05-10T04:35:23;38.92;;;22.13;;
59042;SDS011;44826;51.596;5.624;2023-05-10T04:37:48;38.33;;;21.80;;
59042;SDS011;44826;51.596;5.624;2023-05-10T04:40:13;35.83;;;21.42;;
59042;SDS011;44826;51.596;5.624;2023-05-10T04:42:42;40.90;;;20.58;;
59042;SDS011;44826;51.596;5.624;2023-05-10T04:45:09;33.60;;;18.55;;
59042;SDS011;44826;51.596;5.624;2023-05-10T04:47:35;32.45;;;18.33;;
59042;SDS011;44826;51.596;5.624;2023-05-10T04:50:01;36.13;;;18.42;;
59042;SDS011;44826;51.596;5.624;2023-05-10T04:52:27;31.83;;;17.00;;
59042;SDS011;44826;51.596;5.624;2023-05-10T04:54:52;33.20;;;18.02;;
59042;SDS011;44826;51.596;5.624;2023-05-10T04:57:18;29.45;;;16.75;;
59042;SDS011;44826;51.596;5.624;2023-05-10T04:59:43;29.02;;;17.48;;
59042;SDS011;44826;51.596;5.624;2023-05-10T05:02:08;30.70;;;16.85;;
59042;SDS011;44826;51.596;5.624;2023-05-10T05:04:33;32.25;;;16.27;;
59042;SDS011;44826;51.596;5.624;2023-05-10T05:06:59;31.00;;;16.73;;
59042;SDS011;44826;51.596;5.624;2023-05-10T05:09:24;29.23;;;15.68;;
59042;SDS011;44826;51.596;5.624;2023-05-10T05:11:49;26.77;;;15.18;;
59042;SDS011;44826;51.596;5.624;2023-05-10T05:14:15;25.60;;;14.68;;
59042;SDS011;44826;51.596;5.624;2023-05-10T05:16:40;24.38;;;14.80;;
59042;SDS011;44826;51.596;5.624;2023-05-10T05:19:05;29.13;;;14.45;;
59042;SDS011;44826;51.596;5.624;2023-05-10T05:21:30;25.35;;;14.27;;
59042;SDS011;44826;51.596;5.624;2023-05-10T05:23:57;23.83;;;13.95;;
59042;SDS011;44826;51.596;5.624;2023-05-10T05:26:22;25.15;;;14.45;;
59042;SDS011;44826;51.596;5.624;2023-05-10T05:28:47;26.30;;;14.05;;
59042;SDS011;44826;51.596;5.624;2023-05-10T05:31:13;24.50;;;14.18;;
59042;SDS011;44826;51.596;5.624;2023-05-10T05:33:39;24.17;;;14.05;;
59042;SDS011;44826;51.596;5.624;2023-05-10T05:36:04;25.95;;;14.13;;
59042;SDS011;44826;51.596;5.624;2023-05-10T05:38:30;24.02;;;14.82;;
59042;SDS011;44826;51.596;5.624;2023-05-10T05:40:56;23.02;;;14.57;;
59042;SDS011;44826;51.596;5.624;2023-05-10T05:43:22;21.95;;;13.90;;
59042;SDS011;44826;51.596;5.624;2023-05-10T05:45:48;23.73;;;13.73;;
59042;SDS011;44826;51.596;5.624;2023-05-10T05:48:14;24.33;;;14.30;;
59042;SDS011;44826;51.596;5.624;2023-05-10T05:50:39;25.48;;;14.43;;
59042;SDS011;44826;51.596;5.624;2023-05-10T05:53:04;25.10;;;14.70;;
59042;SDS011;44826;51.596;5.624;2023-05-10T05:55:29;25.63;;;14.30;;
59042;SDS011;44826;51.596;5.624;2023-05-10T05:57:56;21.52;;;13.88;;
59042;SDS011;44826;51.596;5.624;2023-05-10T06:00:22;25.20;;;14.13;;
59042;SDS011;44826;51.596;5.624;2023-05-10T06:02:47;22.65;;;14.27;;
59042;SDS011;44826;51.596;5.624;2023-05-10T06:05:13;23.58;;;13.70;;
59042;SDS011;44826;51.596;5.624;2023-05-10T06:07:39;22.45;;;14.55;;
59042;SDS011;44826;51.596;5.624;2023-05-10T06:10:07;23.80;;;14.10;;
59042;SDS011;44826;51.596;5.624;2023-05-10T06:12:32;26.73;;;14.60;;
59042;SDS011;44826;51.596;5.624;2023-05-10T06:14:58;24.55;;;14.10;;
59042;SDS011;44826;51.596;5.624;2023-05-10T06:17:23;24.65;;;13.98;;
59042;SDS011;44826;51.596;5.624;2023-05-10T06:19:49;24.98;;;14.18;;
59042;SDS011;44826;51.596;5.624;2023-05-10T06:22:14;25.50;;;14.70;;
59042;SDS011;44826;51.596;5.624;2023-05-10T06:24:40;24.20;;;14.15;;
59042;SDS011;44826;51.596;5.624;2023-05-10T06:27:05;23.02;;;13.80;;
59042;SDS011;44826;51.596;5.624;2023-05-10T06:29:31;19.98;;;13.02;;
59042;SDS011;44826;51.596;5.624;2023-05-10T06:31:56;24.10;;;13.35;;
59042;SDS011;44826;51.596;5.624;2023-05-10T06:34:21;20.15;;;12.55;;
59042;SDS011;44826;51.596;5.624;2023-05-10T06:36:46;20.90;;;12.98;;
59042;SDS011;44826;51.596;5.624;2023-05-10T06:39:12;22.83;;;14.23;;
59042;SDS011;44826;51.596;5.624;2023-05-10T06:41:37;20.48;;;12.90;;
59042;SDS011;44826;51.596;5.624;2023-05-10T06:44:03;24.23;;;13.15;;
59042;SDS011;44826;51.596;5.624;2023-05-10T06:46:28;22.92;;;12.90;;
59042;SDS011;44826;51.596;5.624;2023-05-10T06:48:54;21.23;;;13.27;;
59042;SDS011;44826;51.596;5.624;2023-05-10T06:51:19;20.63;;;12.57;;
59042;SDS011;44826;51.596;5.624;2023-05-10T06:53:46;22.15;;;13.20;;
59042;SDS011;44826;51.596;5.624;2023-05-10T06:56:11;23.98;;;13.73;;
59042;SDS011;44826;51.596;5.624;2023-05-10T06:58:36;24.98;;;13.98;;
59042;SDS011;44826;51.596;5.624;2023-05-10T07:01:02;21.33;;;13.25;;
59042;SDS011;44826;51.596;5.624;2023-05-10T07:03:28;20.70;;;13.25;;
59042;SDS011;44826;51.596;5.624;2023-05-10T07:05:53;25.77;;;14.18;;
59042;SDS011;44826;51.596;5.624;2023-05-10T07:08:20;25.10;;;14.30;;
59042;SDS011;44826;51.596;5.624;2023-05-10T07:10:45;23.83;;;13.77;;
59042;SDS011;44826;51.596;5.624;2023-05-10T07:13:10;24.50;;;13.90;;
59042;SDS011;44826;51.596;5.624;2023-05-10T07:15:35;21.42;;;13.38;;
59042;SDS011;44826;51.596;5.624;2023-05-10T07:18:01;23.02;;;13.57;;
59042;SDS011;44826;51.596;5.624;2023-05-10T07:20:26;24.85;;;14.00;;
59042;SDS011;44826;51.596;5.624;2023-05-10T07:22:51;25.52;;;14.45;;
59042;SDS011;44826;51.596;5.624;2023-05-10T07:25:17;22.13;;;14.18;;
59042;SDS011;44826;51.596;5.624;2023-05-10T07:27:42;22.02;;;13.45;;
59042;SDS011;44826;51.596;5.624;2023-05-10T07:30:07;22.77;;;13.88;;
59042;SDS011;44826;51.596;5.624;2023-05-10T07:32:33;22.50;;;14.20;;
59042;SDS011;44826;51.596;5.624;2023-05-10T07:34:58;23.50;;;14.75;;
59042;SDS011;44826;51.596;5.624;2023-05-10T07:37:24;22.42;;;14.07;;
59042;SDS011;44826;51.596;5.624;2023-05-10T07:39:49;24.17;;;14.77;;
59042;SDS011;44826;51.596;5.624;2023-05-10T07:42:14;23.52;;;15.63;;
59042;SDS011;44826;51.596;5.624;2023-05-10T07:44:40;25.42;;;15.85;;
59042;SDS011;44826;51.596;5.624;2023-05-10T07:47:05;27.55;;;15.93;;
59042;SDS011;44826;51.596;5.624;2023-05-10T07:49:30;27.27;;;16.27;;
59042;SDS011;44826;51.596;5.624;2023-05-10T07:51:55;26.70;;;15.77;;
59042;SDS011;44826;51.596;5.624;2023-05-10T07:54:21;24.80;;;15.60;;
59042;SDS011;44826;51.596;5.624;2023-05-10T07:56:46;25.65;;;15.60;;
59042;SDS011;44826;51.596;5.624;2023-05-10T07:59:15;26.85;;;15.88;;
59042;SDS011;44826;51.596;5.624;2023-05-10T08:01:42;25.23;;;15.07;;
59042;SDS011;44826;51.596;5.624;2023-05-10T08:04:07;25.63;;;15.38;;
59042;SDS011;44826;51.596;5.624;2023-05-10T08:06:33;25.63;;;15.02;;
59042;SDS011;44826;51.596;5.624;2023-05-10T08:08:59;24.75;;;15.15;;
59042;SDS011;44826;51.596;5.624;2023-05-10T08:11:24;25.75;;;15.10;;
59042;SDS011;44826;51.596;5.624;2023-05-10T08:13:49;23.95;;;14.93;;
59042;SDS011;44826;51.596;5.624;2023-05-10T08:16:16;26.45;;;15.25;;
59042;SDS011;44826;51.596;5.624;2023-05-10T08:18:42;24.52;;;15.20;;
59042;SDS011;44826;51.596;5.624;2023-05-10T08:21:08;24.00;;;15.18;;
59042;SDS011;44826;51.596;5.624;2023-05-10T08:23:36;24.65;;;14.52;;
59042;SDS011;44826;51.596;5.624;2023-05-10T08:26:01;22.08;;;13.93;;
59042;SDS011;44826;51.596;5.624;2023-05-10T08:28:26;23.23;;;13.95;;
59042;SDS011;44826;51.596;5.624;2023-05-10T08:30:52;23.30;;;14.23;;
59042;SDS011;44826;51.596;5.624;2023-05-10T08:33:17;22.65;;;13.48;;
59042;SDS011;44826;51.596;5.624;2023-05-10T08:35:43;19.55;;;13.38;;
59042;SDS011;44826;51.596;5.624;2023-05-10T08:38:08;19.58;;;12.10;;
59042;SDS011;44826;51.596;5.624;2023-05-10T08:40:34;20.85;;;12.38;;
59042;SDS011;44826;51.596;5.624;2023-05-10T08:43:04;19.63;;;11.60;;
59042;SDS011;44826;51.596;5.624;2023-05-10T08:45:32;19.33;;;11.65;;
59042;SDS011;44826;51.596;5.624;2023-05-10T08:48:04;17.42;;;11.18;;
59042;SDS011;44826;51.596;5.624;2023-05-10T08:50:31;16.75;;;11.32;;
59042;SDS011;44826;51.596;5.624;2023-05-10T08:52:59;17.35;;;11.23;;
59042;SDS011;44826;51.596;5.624;2023-05-10T08:55:26;15.52;;;11.07;;
59042;SDS011;44826;51.596;5.624;2023-05-10T08:57:52;16.35;;;10.70;;
59042;SDS011;44826;51.596;5.624;2023-05-10T09:00:18;18.70;;;11.05;;
59042;SDS011;44826;51.596;5.624;2023-05-10T09:02:44;16.23;;;10.38;;
59042;SDS011;44826;51.596;5.624;2023-05-10T09:05:13;16.80;;;11.25;;
59042;SDS011;44826;51.596;5.624;2023-05-10T09:07:40;15.57;;;10.75;;
59042;SDS011;44826;51.596;5.624;2023-05-10T09:10:06;16.02;;;9.75;;
59042;SDS011;44826;51.596;5.624;2023-05-10T09:12:33;15.07;;;10.23;;
59042;SDS011;44826;51.596;5.624;2023-05-10T09:14:59;13.98;;;10.43;;
59042;SDS011;44826;51.596;5.624;2023-05-10T09:17:25;12.32;;;9.82;;
59042;SDS011;44826;51.596;5.624;2023-05-10T09:20:01;15.60;;;9.85;;
59042;SDS011;44826;51.596;5.624;2023-05-10T09:22:28;12.10;;;8.77;;
59042;SDS011;44826;51.596;5.624;2023-05-10T09:27:29;10.95;;;8.20;;
59042;SDS011;44826;51.596;5.624;2023-05-10T09:29:55;14.88;;;9.60;;
59042;SDS011;44826;51.596;5.624;2023-05-10T09:32:20;14.02;;;9.43;;
59042;SDS011;44826;51.596;5.624;2023-05-10T09:34:46;15.15;;;9.02;;
59042;SDS011;44826;51.596;5.624;2023-05-10T09:37:16;13.57;;;8.98;;
59042;SDS011;44826;51.596;5.624;2023-05-10T09:39:41;14.30;;;9.07;;
59042;SDS011;44826;51.596;5.624;2023-05-10T09:42:10;12.15;;;8.68;;
59042;SDS011;44826;51.596;5.624;2023-05-10T09:44:35;12.95;;;8.35;;
59042;SDS011;44826;51.596;5.624;2023-05-10T09:47:01;13.40;;;8.00;;
59042;SDS011;44826;51.596;5.624;2023-05-10T09:49:27;10.25;;;7.07;;
59042;SDS011;44826;51.596;5.624;2023-05-10T09:52:03;10.52;;;6.90;;
59042;SDS011;44826;51.596;5.624;2023-05-10T09:54:30;8.93;;;6.75;;
59042;SDS011;44826;51.596;5.624;2023-05-10T09:56:56;9.43;;;6.75;;
59042;SDS011;44826;51.596;5.624;2023-05-10T09:59:22;9.20;;;6.13;;
59042;SDS011;44826;51.596;5.624;2023-05-10T10:01:51;9.25;;;5.90;;
59042;SDS011;44826;51.596;5.624;2023-05-10T10:04:17;9.38;;;6.10;;
59042;SDS011;44826;51.596;5.624;2023-05-10T10:06:42;9.68;;;5.72;;
59042;SDS011;44826;51.596;5.624;2023-05-10T10:09:08;8.27;;;6.18;;
59042;SDS011;44826;51.596;5.624;2023-05-10T10:11:35;8.15;;;5.93;;
59042;SDS011;44826;51.596;5.624;2023-05-10T10:14:01;9.98;;;5.55;;
59042;SDS011;44826;51.596;5.624;2023-05-10T10:16:27;7.72;;;5.72;;
59042;SDS011;44826;51.596;5.624;2023-05-10T10:18:54;7.90;;;6.03;;
59042;SDS011;44826;51.596;5.624;2023-05-10T10:21:19;7.25;;;5.63;;
59042;SDS011;44826;51.596;5.624;2023-05-10T10:23:45;8.80;;;5.68;;
59042;SDS011;44826;51.596;5.624;2023-05-10T10:26:11;8.30;;;5.60;;
59042;SDS011;44826;51.596;5.624;2023-05-10T10:28:40;9.45;;;5.72;;
59042;SDS011;44826;51.596;5.624;2023-05-10T10:34:10;8.18;;;5.75;;
59042;SDS011;44826;51.596;5.624;2023-05-10T10:36:46;7.63;;;6.10;;
59042;SDS011;44826;51.596;5.624;2023-05-10T10:39:12;7.75;;;6.18;;
59042;SDS011;44826;51.596;5.624;2023-05-10T10:41:39;8.57;;;5.95;;
59042;SDS011;44826;51.596;5.624;2023-05-10T10:46:59;9.20;;;5.80;;
59042;SDS011;44826;51.596;5.624;2023-05-10T10:54:56;6.97;;;4.80;;
59042;SDS011;44826;51.596;5.624;2023-05-10T10:57:24;7.00;;;4.90;;
59042;SDS011;44826;51.596;5.624;2023-05-10T10:59:51;7.38;;;5.00;;
59042;SDS011;44826;51.596;5.624;2023-05-10T11:07:58;7.00;;;5.28;;
59042;SDS011;44826;51.596;5.624;2023-05-10T11:10:24;8.52;;;5.40;;
59042;SDS011;44826;51.596;5.624;2023-05-10T11:12:58;7.40;;;5.47;;
59042;SDS011;44826;51.596;5.624;2023-05-10T11:15:29;8.38;;;5.57;;
59042;SDS011;44826;51.596;5.624;2023-05-10T11:17:56;8.25;;;5.55;;
59042;SDS011;44826;51.596;5.624;2023-05-10T11:20:21;7.18;;;5.55;;
59042;SDS011;44826;51.596;5.624;2023-05-10T11:22:50;8.25;;;6.07;;
59042;SDS011;44826;51.596;5.624;2023-05-10T11:25:16;10.50;;;6.35;;
59042;SDS011;44826;51.596;5.624;2023-05-10T11:27:42;9.75;;;6.18;;
59042;SDS011;44826;51.596;5.624;2023-05-10T11:30:07;7.55;;;6.15;;
59042;SDS011;44826;51.596;5.624;2023-05-10T11:32:36;8.73;;;6.10;;
59042;SDS011;44826;51.596;5.624;2023-05-10T11:35:12;7.63;;;5.70;;
59042;SDS011;44826;51.596;5.624;2023-05-10T11:37:38;8.85;;;6.20;;
59042;SDS011;44826;51.596;5.624;2023-05-10T11:40:07;7.22;;;5.82;;
59042;SDS011;44826;51.596;5.624;2023-05-10T11:42:34;8.63;;;6.43;;
59042;SDS011;44826;51.596;5.624;2023-05-10T11:45:02;10.07;;;6.90;;
59042;SDS011;44826;51.596;5.624;2023-05-10T11:47:27;8.07;;;6.13;;
59042;SDS011;44826;51.596;5.624;2023-05-10T11:49:52;8.43;;;6.55;;
59042;SDS011;44826;51.596;5.624;2023-05-10T11:52:18;9.15;;;7.40;;
59042;SDS011;44826;51.596;5.624;2023-05-10T11:54:53;8.55;;;6.80;;
59042;SDS011;44826;51.596;5.624;2023-05-10T11:57:19;10.43;;;6.80;;
59042;SDS011;44826;51.596;5.624;2023-05-10T11:59:46;9.32;;;7.15;;
59042;SDS011;44826;51.596;5.624;2023-05-10T12:02:13;9.55;;;6.72;;
59042;SDS011;44826;51.596;5.624;2023-05-10T12:04:38;9.85;;;7.28;;
59042;SDS011;44826;51.596;5.624;2023-05-10T12:07:04;9.60;;;7.25;;
59042;SDS011;44826;51.596;5.624;2023-05-10T12:09:30;10.32;;;7.35;;
59042;SDS011;44826;51.596;5.624;2023-05-10T12:11:55;11.80;;;8.18;;
59042;SDS011;44826;51.596;5.624;2023-05-10T12:14:24;11.65;;;8.27;;
59042;SDS011;44826;51.596;5.624;2023-05-10T12:16:49;11.55;;;8.57;;
59042;SDS011;44826;51.596;5.624;2023-05-10T12:19:18;11.90;;;8.45;;
59042;SDS011;44826;51.596;5.624;2023-05-10T12:21:44;11.13;;;8.68;;
59042;SDS011;44826;51.596;5.624;2023-05-10T12:24:09;12.27;;;7.97;;
59042;SDS011;44826;51.596;5.624;2023-05-10T12:26:35;10.25;;;7.78;;
59042;SDS011;44826;51.596;5.624;2023-05-10T12:31:55;10.98;;;8.15;;
59042;SDS011;44826;51.596;5.624;2023-05-10T12:34:22;11.63;;;7.93;;
59042;SDS011;44826;51.596;5.624;2023-05-10T12:37:01;11.05;;;8.20;;
59042;SDS011;44826;51.596;5.624;2023-05-10T12:39:40;12.20;;;8.25;;
59042;SDS011;44826;51.596;5.624;2023-05-10T12:42:06;12.02;;;7.80;;
59042;SDS011;44826;51.596;5.624;2023-05-10T12:44:32;9.48;;;7.47;;
59042;SDS011;44826;51.596;5.624;2023-05-10T12:46:57;9.45;;;7.38;;
59042;SDS011;44826;51.596;5.624;2023-05-10T12:49:22;10.90;;;8.20;;
59042;SDS011;44826;51.596;5.624;2023-05-10T12:51:47;11.15;;;7.88;;
59042;SDS011;44826;51.596;5.624;2023-05-10T12:54:13;11.52;;;7.60;;
59042;SDS011;44826;51.596;5.624;2023-05-10T12:56:38;10.38;;;7.35;;
59042;SDS011;44826;51.596;5.624;2023-05-10T12:59:05;10.93;;;7.88;;
59042;SDS011;44826;51.596;5.624;2023-05-10T13:01:31;13.40;;;7.22;;
59042;SDS011;44826;51.596;5.624;2023-05-10T13:03:56;11.05;;;7.28;;
59042;SDS011;44826;51.596;5.624;2023-05-10T13:06:21;12.38;;;7.63;;
59042;SDS011;44826;51.596;5.624;2023-05-10T13:08:46;10.02;;;7.55;;
59042;SDS011;44826;51.596;5.624;2023-05-10T13:11:12;10.80;;;7.63;;
59042;SDS011;44826;51.596;5.624;2023-05-10T13:13:41;12.88;;;7.88;;
59042;SDS011;44826;51.596;5.624;2023-05-10T13:16:06;11.25;;;8.20;;
59042;SDS011;44826;51.596;5.624;2023-05-10T13:18:31;9.65;;;7.60;;
59042;SDS011;44826;51.596;5.624;2023-05-10T13:20:57;11.07;;;8.48;;
59042;SDS011;44826;51.596;5.624;2023-05-10T13:23:22;11.32;;;8.18;;
59042;SDS011;44826;51.596;5.624;2023-05-10T13:25:47;9.10;;;7.63;;
59042;SDS011;44826;51.596;5.624;2023-05-10T13:28:12;8.77;;;7.47;;
59042;SDS011;44826;51.596;5.624;2023-05-10T13:30:38;10.07;;;8.02;;
59042;SDS011;44826;51.596;5.624;2023-05-10T13:33:03;10.30;;;8.45;;
59042;SDS011;44826;51.596;5.624;2023-05-10T13:35:28;9.68;;;8.43;;
59042;SDS011;44826;51.596;5.624;2023-05-10T13:37:54;9.48;;;8.50;;
59042;SDS011;44826;51.596;5.624;2023-05-10T13:40:21;9.27;;;8.27;;
59042;SDS011;44826;51.596;5.624;2023-05-10T13:42:47;8.75;;;7.85;;
59042;SDS011;44826;51.596;5.624;2023-05-10T13:45:12;8.93;;;8.00;;
59042;SDS011;44826;51.596;5.624;2023-05-10T13:47:38;9.18;;;8.10;;
59042;SDS011;44826;51.596;5.624;2023-05-10T13:50:03;8.50;;;7.30;;
59042;SDS011;44826;51.596;5.624;2023-05-10T13:52:29;7.90;;;6.93;;
59042;SDS011;44826;51.596;5.624;2023-05-10T13:54:54;8.05;;;6.55;;
59042;SDS011;44826;51.596;5.624;2023-05-10T13:57:20;7.47;;;6.50;;
59042;SDS011;44826;51.596;5.624;2023-05-10T13:59:46;5.85;;;4.70;;
59042;SDS011;44826;51.596;5.624;2023-05-10T14:02:11;6.53;;;4.25;;
59042;SDS011;44826;51.596;5.624;2023-05-10T14:04:38;6.05;;;4.20;;
59042;SDS011;44826;51.596;5.624;2023-05-10T14:07:03;4.65;;;3.60;;
59042;SDS011;44826;51.596;5.624;2023-05-10T14:09:28;5.18;;;4.00;;
59042;SDS011;44826;51.596;5.624;2023-05-10T14:11:53;5.28;;;4.18;;
59042;SDS011;44826;51.596;5.624;2023-05-10T14:14:19;5.32;;;4.13;;
59042;SDS011;44826;51.596;5.624;2023-05-10T14:16:44;6.15;;;4.70;;
59042;SDS011;44826;51.596;5.624;2023-05-10T14:19:10;6.05;;;4.63;;
59042;SDS011;44826;51.596;5.624;2023-05-10T14:21:35;6.75;;;4.68;;
59042;SDS011;44826;51.596;5.624;2023-05-10T14:24:00;6.10;;;4.68;;
59042;SDS011;44826;51.596;5.624;2023-05-10T14:26:26;8.27;;;5.80;;
59042;SDS011;44826;51.596;5.624;2023-05-10T14:28:52;9.57;;;5.13;;
59042;SDS011;44826;51.596;5.624;2023-05-10T14:31:17;7.28;;;5.35;;
59042;SDS011;44826;51.596;5.624;2023-05-10T14:33:45;7.38;;;5.25;;
59042;SDS011;44826;51.596;5.624;2023-05-10T14:36:10;6.90;;;5.38;;
59042;SDS011;44826;51.596;5.624;2023-05-10T14:38:35;7.07;;;5.53;;
59042;SDS011;44826;51.596;5.624;2023-05-10T14:41:01;6.82;;;5.68;;
59042;SDS011;44826;51.596;5.624;2023-05-10T14:43:26;6.63;;;5.50;;
59042;SDS011;44826;51.596;5.624;2023-05-10T14:45:52;7.15;;;4.85;;
59042;SDS011;44826;51.596;5.624;2023-05-10T14:48:18;8.73;;;5.40;;
59042;SDS011;44826;51.596;5.624;2023-05-10T14:50:44;6.45;;;5.30;;
59042;SDS011;44826;51.596;5.624;2023-05-10T14:53:10;5.82;;;5.07;;
59042;SDS011;44826;51.596;5.624;2023-05-10T14:55:36;8.30;;;5.47;;
59042;SDS011;44826;51.596;5.624;2023-05-10T14:58:02;7.00;;;5.82;;
59042;SDS011;44826;51.596;5.624;2023-05-10T15:00:28;7.10;;;5.68;;
59042;SDS011;44826;51.596;5.624;2023-05-10T15:02:54;8.93;;;5.97;;
59042;SDS011;44826;51.596;5.624;2023-05-10T15:05:19;8.00;;;6.20;;
59042;SDS011;44826;51.596;5.624;2023-05-10T15:07:44;7.60;;;6.40;;
59042;SDS011;44826;51.596;5.624;2023-05-10T15:10:10;9.32;;;6.32;;
59042;SDS011;44826;51.596;5.624;2023-05-10T15:12:36;6.70;;;5.70;;
59042;SDS011;44826;51.596;5.624;2023-05-10T15:15:01;8.98;;;6.05;;